Time;durP1;ratioP1;P1;durP2;ratioP2;P2;SDS_P1;SDS_P2;PMS_P1;PMS_P2;Temp;Humidity;BMP_temperature;BMP_pressure;BME280_temperature;BME280_humidity;BME280_pressure;Samples;Min_cycle;Max_cycle;Signal;HPM_P1;HPM_P2
2021/12/31 00:02:24;;;;;;;0.20;0.20;;;12.60;99.90;;;;;;5116623;27;20133;-84
2021/12/31 00:04:50;;;;;;;0.38;0.38;;;12.50;99.90;;;;;;5116372;27;20043;-87
2021/12/31 00:07:17;;;;;;;0.28;0.28;;;12.50;99.90;;;;;;5116141;28;20096;-88
2021/12/31 00:09:43;;;;;;;0.75;0.75;;;12.60;99.90;;;;;;5134207;27;20387;-89
2021/12/31 00:12:09;;;;;;;1.27;1.27;;;12.50;99.90;;;;;;5134932;27;20039;-86
2021/12/31 00:14:35;;;;;;;0.28;0.28;;;12.60;99.90;;;;;;5134708;27;20079;-85
2021/12/31 00:17:01;;;;;;;7.53;1.88;;;12.70;99.90;;;;;;5134336;27;20039;-84
2021/12/31 00:19:30;;;;;;;0.52;0.52;;;12.70;99.90;;;;;;5115784;28;20452;-84
2021/12/31 00:21:58;;;;;;;0.63;0.63;;;12.70;99.90;;;;;;5115598;28;20532;-85
2021/12/31 00:24:25;;;;;;;5.32;1.60;;;12.60;99.90;;;;;;5115529;28;20121;-81
2021/12/31 00:26:51;;;;;;;0.20;0.20;;;12.80;99.90;;;;;;5134180;28;20043;-85
2021/12/31 00:29:17;;;;;;;2.80;1.30;;;12.70;99.90;;;;;;5115470;28;20411;-86
2021/12/31 00:31:43;;;;;;;6.93;0.98;;;12.60;99.90;;;;;;5134092;28;20043;-86
2021/12/31 00:34:09;;;;;;;0.28;0.28;;;12.60;99.90;;;;;;5134345;28;20050;-87
2021/12/31 00:36:44;;;;;;;8.48;1.30;;;12.70;99.90;;;;;;5115839;28;20067;-87
2021/12/31 00:39:10;;;;;;;5.65;1.52;;;12.70;99.90;;;;;;5133836;28;20051;-86
2021/12/31 00:41:36;;;;;;;0.85;0.85;;;12.70;99.90;;;;;;5134329;28;20039;-86
2021/12/31 00:44:02;;;;;;;1.52;1.42;;;12.70;99.90;;;;;;5116310;28;20122;-85
2021/12/31 00:46:30;;;;;;;0.20;0.20;;;12.70;99.90;;;;;;5141615;27;20086;-84
2021/12/31 00:48:56;;;;;;;0.47;0.47;;;12.70;99.90;;;;;;5154002;27;20079;-84
2021/12/31 00:51:22;;;;;;;2.28;0.63;;;12.70;99.90;;;;;;5127231;27;20133;-85
2021/12/31 00:53:47;;;;;;;1.25;0.50;;;12.70;99.90;;;;;;5120275;27;20047;-85
2021/12/31 00:56:13;;;;;;;0.15;0.15;;;12.70;99.90;;;;;;5138021;27;20050;-87
2021/12/31 00:58:39;;;;;;;0.32;0.22;;;12.70;99.90;;;;;;5118890;27;20095;-84
2021/12/31 01:01:05;;;;;;;0.20;0.20;;;12.70;99.90;;;;;;5137625;27;20047;-79
2021/12/31 01:03:31;;;;;;;0.20;0.20;;;12.80;99.90;;;;;;5137254;27;20050;-87
2021/12/31 01:05:57;;;;;;;0.80;0.80;;;12.70;99.90;;;;;;5137136;27;20118;-81
2021/12/31 01:08:23;;;;;;;0.75;0.75;;;12.70;99.90;;;;;;5137266;27;20130;-83
2021/12/31 01:10:48;;;;;;;0.52;0.38;;;12.80;99.90;;;;;;5137185;27;20114;-83
2021/12/31 01:13:24;;;;;;;0.35;0.28;;;12.80;99.90;;;;;;5137246;27;20043;-81
2021/12/31 01:15:57;;;;;;;0.32;0.30;;;12.80;99.90;;;;;;5118812;27;20126;-81
2021/12/31 01:18:27;;;;;;;0.32;0.32;;;12.70;99.90;;;;;;5136860;27;20479;-80
2021/12/31 01:20:53;;;;;;;17.13;1.40;;;12.70;99.90;;;;;;5136780;27;20039;-80
2021/12/31 01:23:19;;;;;;;0.95;0.32;;;12.70;99.90;;;;;;5118598;27;20057;-85
2021/12/31 01:25:45;;;;;;;0.25;0.25;;;12.70;99.90;;;;;;5136917;27;20444;-83
2021/12/31 01:28:11;;;;;;;1.02;0.95;;;12.80;99.90;;;;;;5118544;27;20039;-83
2021/12/31 01:30:37;;;;;;;2.08;1.15;;;12.80;99.90;;;;;;5118758;27;20054;-82
2021/12/31 01:33:03;;;;;;;3.40;3.15;;;12.90;99.90;;;;;;5118586;27;20402;-83
2021/12/31 01:35:28;;;;;;;0.55;0.40;;;12.90;99.90;;;;;;5136707;27;20496;-84
2021/12/31 01:37:54;;;;;;;1.48;1.08;;;12.90;99.90;;;;;;5136483;27;20039;-81
2021/12/31 01:40:20;;;;;;;0.40;0.40;;;12.80;99.90;;;;;;5114804;28;20131;-84
2021/12/31 01:42:45;;;;;;;1.83;1.50;;;12.80;99.90;;;;;;5098057;28;20063;-85
2021/12/31 01:45:16;;;;;;;4.03;0.20;;;12.80;99.90;;;;;;5116343;28;20039;-84
2021/12/31 01:50:32;;;;;;;1.45;0.75;;;12.80;99.90;;;;;;5052641;28;20091;-85
2021/12/31 01:52:59;;;;;;;1.42;1.35;;;12.80;99.90;;;;;;5052751;28;20053;-84
2021/12/31 01:55:29;;;;;;;2.08;1.15;;;12.80;99.90;;;;;;5052735;28;20056;-84
2021/12/31 01:57:55;;;;;;;2.35;1.75;;;12.80;99.90;;;;;;5018470;28;20065;-80
2021/12/31 02:00:21;;;;;;;0.52;0.52;;;12.80;99.90;;;;;;5036191;28;20127;-84
2021/12/31 02:02:48;;;;;;;1.08;1.08;;;12.90;99.90;;;;;;5052639;28;20529;-85
2021/12/31 02:05:14;;;;;;;4.90;0.98;;;12.80;99.90;;;;;;5035880;28;20048;-84
2021/12/31 02:07:40;;;;;;;0.43;0.32;;;12.90;99.90;;;;;;5052340;28;20081;-84
2021/12/31 02:10:08;;;;;;;0.50;0.50;;;12.80;99.90;;;;;;5060580;28;20489;-83
2021/12/31 02:12:38;;;;;;;1.20;1.08;;;12.90;99.90;;;;;;5072424;28;20048;-83
2021/12/31 02:15:04;;;;;;;0.40;0.40;;;13.10;99.90;;;;;;5072248;28;20559;-81
2021/12/31 02:17:29;;;;;;;1.45;0.95;;;13.00;99.90;;;;;;5072380;28;20552;-83
2021/12/31 02:20:03;;;;;;;3.30;2.05;;;13.00;99.90;;;;;;5072227;28;20048;-83
2021/12/31 02:22:29;;;;;;;0.40;0.30;;;12.90;99.90;;;;;;5055427;28;20044;-81
2021/12/31 02:24:56;;;;;;;7.82;0.40;;;12.90;99.90;;;;;;5072128;28;20040;-81
2021/12/31 02:27:25;;;;;;;0.63;0.63;;;12.90;99.90;;;;;;5091362;28;20077;-82
2021/12/31 02:29:51;;;;;;;0.60;0.47;;;13.00;99.90;;;;;;5115312;28;20032;-84
2021/12/31 02:32:18;;;;;;;1.10;0.30;;;13.00;99.90;;;;;;5114717;28;20456;-84
2021/12/31 02:34:44;;;;;;;0.45;0.45;;;13.00;99.90;;;;;;5106055;28;20191;-84
2021/12/31 02:37:10;;;;;;;0.10;0.10;;;13.10;99.90;;;;;;5130776;28;20066;-80
2021/12/31 02:39:40;;;;;;;7.10;1.83;;;13.10;99.90;;;;;;5120325;27;20035;-83
2021/12/31 02:42:08;;;;;;;4.53;2.05;;;13.10;99.90;;;;;;5117965;27;20039;-85
2021/12/31 02:44:34;;;;;;;2.00;0.50;;;13.10;99.90;;;;;;5116622;27;20412;-82
2021/12/31 02:47:03;;;;;;;0.93;0.93;;;13.20;99.90;;;;;;5116816;27;20129;-83
2021/12/31 02:49:34;;;;;;;8.02;2.40;;;13.20;99.90;;;;;;5116834;27;20047;-83
2021/12/31 02:52:02;;;;;;;0.25;0.22;;;13.20;99.90;;;;;;5135188;27;20138;-84
2021/12/31 02:54:29;;;;;;;1.15;1.15;;;13.10;99.90;;;;;;5116619;27;20040;-84
2021/12/31 02:56:55;;;;;;;7.97;4.35;;;13.10;99.90;;;;;;5116609;27;20138;-83
2021/12/31 02:59:21;;;;;;;2.28;1.15;;;13.00;99.90;;;;;;5134768;27;20138;-85
2021/12/31 03:01:49;;;;;;;0.35;0.35;;;13.10;99.90;;;;;;5134815;27;20066;-85
2021/12/31 03:04:16;;;;;;;0.73;0.73;;;13.10;99.90;;;;;;5116531;27;20047;-83
2021/12/31 03:06:43;;;;;;;0.10;0.10;;;13.00;99.90;;;;;;5134870;27;20383;-86
2021/12/31 03:09:10;;;;;;;3.85;2.25;;;13.00;99.90;;;;;;5134547;27;20035;-80
2021/12/31 03:11:37;;;;;;;0.45;0.45;;;13.00;99.90;;;;;;5134824;27;20043;-84
2021/12/31 03:14:04;;;;;;;4.80;1.38;;;13.10;99.90;;;;;;5134949;27;20045;-85
2021/12/31 03:16:32;;;;;;;2.28;1.02;;;13.10;99.90;;;;;;5134600;27;20076;-82
2021/12/31 03:18:58;;;;;;;1.65;1.17;;;13.10;99.90;;;;;;5134625;27;20054;-83
2021/12/31 03:25:05;;;;;;;0.65;0.65;;;13.10;99.90;;;;;;5134297;27;20125;-84
2021/12/31 03:27:31;;;;;;;4.72;1.70;;;13.10;99.90;;;;;;5135746;27;20423;-80
2021/12/31 03:29:58;;;;;;;1.23;1.17;;;13.10;99.90;;;;;;5149875;27;20047;-84
2021/12/31 03:32:24;;;;;;;1.05;1.05;;;13.20;99.90;;;;;;5143626;27;20088;-80
2021/12/31 03:34:49;;;;;;;1.08;1.02;;;13.10;99.90;;;;;;5116873;27;20433;-85
2021/12/31 03:37:15;;;;;;;1.02;1.00;;;13.20;99.90;;;;;;5134869;27;20443;-87
2021/12/31 03:39:41;;;;;;;1.02;0.80;;;13.20;99.90;;;;;;5115863;27;20050;-84
2021/12/31 03:42:07;;;;;;;0.80;0.80;;;13.20;99.90;;;;;;5134734;27;20123;-86
2021/12/31 03:44:32;;;;;;;1.33;1.33;;;13.20;99.90;;;;;;5134469;27;20126;-82
2021/12/31 03:46:58;;;;;;;0.90;0.55;;;13.20;99.90;;;;;;5134443;27;20039;-85
2021/12/31 03:49:24;;;;;;;2.55;1.38;;;13.30;99.90;;;;;;5134515;27;20463;-86
2021/12/31 03:51:49;;;;;;;9.98;1.33;;;13.30;99.90;;;;;;5134945;27;20100;-85
2021/12/31 03:54:15;;;;;;;1.02;1.02;;;13.20;99.90;;;;;;5116188;27;20046;-86
2021/12/31 03:56:41;;;;;;;1.23;1.23;;;13.40;99.90;;;;;;5116180;27;20047;-86
2021/12/31 03:59:07;;;;;;;0.57;0.57;;;13.30;99.90;;;;;;5133927;27;20104;-83
2021/12/31 04:01:32;;;;;;;1.85;0.52;;;13.30;99.90;;;;;;5134197;27;20043;-84
2021/12/31 04:03:58;;;;;;;0.40;0.40;;;13.30;99.90;;;;;;5116203;27;20043;-82
2021/12/31 04:06:25;;;;;;;3.92;1.08;;;13.40;99.90;;;;;;5115971;27;20100;-85
2021/12/31 04:08:50;;;;;;;0.40;0.40;;;13.40;99.90;;;;;;5116006;27;20093;-82
2021/12/31 04:11:16;;;;;;;1.00;1.00;;;13.50;99.90;;;;;;5116099;27;20491;-84
2021/12/31 04:13:42;;;;;;;1.00;1.00;;;13.40;99.90;;;;;;5115696;27;20047;-85
2021/12/31 04:16:08;;;;;;;0.80;0.60;;;13.50;99.90;;;;;;5115855;28;20035;-85
2021/12/31 04:18:34;;;;;;;0.57;0.50;;;13.30;99.90;;;;;;5115552;28;20491;-86
2021/12/31 04:21:01;;;;;;;1.35;1.35;;;13.40;99.90;;;;;;5115431;28;20395;-86
2021/12/31 04:23:29;;;;;;;2.15;1.95;;;13.40;99.90;;;;;;5131679;28;20054;-79
2021/12/31 04:25:56;;;;;;;0.40;0.38;;;13.50;99.90;;;;;;5130901;28;20035;-81
2021/12/31 04:28:22;;;;;;;1.58;1.55;;;13.40;99.90;;;;;;5116551;28;20054;-83
2021/12/31 04:30:47;;;;;;;1.77;1.75;;;13.40;99.90;;;;;;5134099;28;20047;-86
2021/12/31 04:33:13;;;;;;;1.05;1.02;;;13.40;99.90;;;;;;5115582;28;20075;-84
2021/12/31 04:35:39;;;;;;;1.67;1.50;;;13.40;99.90;;;;;;5133773;28;20043;-83
2021/12/31 04:38:04;;;;;;;1.45;1.27;;;13.30;99.90;;;;;;5115263;28;20053;-84
2021/12/31 04:40:31;;;;;;;2.33;2.15;;;13.30;99.90;;;;;;5115494;28;20043;-86
2021/12/31 04:42:57;;;;;;;2.25;1.58;;;13.30;99.90;;;;;;5115402;28;20096;-86
2021/12/31 04:45:24;;;;;;;10.98;3.85;;;13.20;99.90;;;;;;5115266;28;20047;-83
2021/12/31 04:47:51;;;;;;;2.67;1.17;;;13.30;99.90;;;;;;5115633;28;20100;-85
2021/12/31 04:50:17;;;;;;;0.30;0.25;;;13.30;99.90;;;;;;5115218;28;20049;-86
2021/12/31 04:52:43;;;;;;;1.08;0.55;;;13.30;99.90;;;;;;5133565;28;20039;-81
2021/12/31 04:55:09;;;;;;;0.70;0.70;;;13.20;99.90;;;;;;5133458;28;20038;-84
2021/12/31 04:57:34;;;;;;;0.47;0.47;;;13.20;99.90;;;;;;5133529;28;20040;-81
2021/12/31 05:00:00;;;;;;;0.40;0.38;;;13.20;99.90;;;;;;5133397;28;20047;-82
2021/12/31 05:02:26;;;;;;;1.17;0.77;;;13.30;99.90;;;;;;5133413;28;20518;-84
2021/12/31 05:04:52;;;;;;;1.48;1.23;;;13.30;99.90;;;;;;5133558;28;20074;-84
2021/12/31 05:07:17;;;;;;;5.90;0.30;;;13.20;99.90;;;;;;5114927;28;20476;-84
2021/12/31 05:09:43;;;;;;;0.57;0.57;;;13.20;99.90;;;;;;5133428;28;20118;-83
2021/12/31 05:12:14;;;;;;;1.80;1.30;;;13.20;99.90;;;;;;5133397;28;20043;-85
2021/12/31 05:14:41;;;;;;;4.45;1.27;;;13.30;99.90;;;;;;5115157;28;20043;-84
2021/12/31 05:17:06;;;;;;;1.25;1.25;;;13.30;99.90;;;;;;5114950;28;20092;-84
2021/12/31 05:19:32;;;;;;;0.28;0.28;;;13.40;99.90;;;;;;5115024;28;20059;-86
2021/12/31 05:21:57;;;;;;;0.20;0.20;;;13.30;99.90;;;;;;5114943;28;20039;-86
2021/12/31 05:24:23;;;;;;;0.30;0.30;;;13.30;99.90;;;;;;5133382;28;20170;-82
2021/12/31 05:26:49;;;;;;;1.40;0.75;;;13.30;99.90;;;;;;5115065;28;20082;-85
2021/12/31 05:29:14;;;;;;;1.35;0.77;;;13.40;99.90;;;;;;5115077;28;20487;-84
2021/12/31 05:31:40;;;;;;;1.05;1.05;;;13.40;99.90;;;;;;5114856;27;20047;-84
2021/12/31 05:34:06;;;;;;;0.60;0.55;;;13.40;99.90;;;;;;5135754;27;20088;-85
2021/12/31 05:36:31;;;;;;;0.32;0.32;;;13.30;99.90;;;;;;5118720;27;20049;-83
2021/12/31 05:38:57;;;;;;;0.50;0.50;;;13.40;99.90;;;;;;5118288;27;20100;-86
2021/12/31 05:41:23;;;;;;;8.50;0.90;;;13.40;99.90;;;;;;5136666;27;20126;-83
2021/12/31 05:43:48;;;;;;;0.28;0.28;;;13.40;99.90;;;;;;5137011;27;20045;-84
2021/12/31 05:46:14;;;;;;;4.53;1.08;;;13.40;99.90;;;;;;5118229;27;20047;-83
2021/12/31 05:48:39;;;;;;;0.10;0.10;;;13.40;99.90;;;;;;5118086;27;20035;-84
2021/12/31 05:51:05;;;;;;;0.60;0.60;;;13.40;99.90;;;;;;5118219;27;20049;-84
2021/12/31 05:53:31;;;;;;;1.90;1.02;;;13.40;99.90;;;;;;5136581;27;20126;-84
2021/12/31 05:55:57;;;;;;;0.10;0.10;;;13.40;99.90;;;;;;5136563;27;20059;-85
2021/12/31 05:58:22;;;;;;;1.20;1.17;;;13.40;99.90;;;;;;5100837;27;20534;-84
2021/12/31 06:00:48;;;;;;;0.10;0.10;;;13.30;99.90;;;;;;5136484;27;20046;-85
2021/12/31 06:03:14;;;;;;;0.10;0.10;;;13.30;99.90;;;;;;5136184;27;20035;-85
2021/12/31 06:05:39;;;;;;;0.20;0.20;;;13.40;99.90;;;;;;5136321;27;20035;-85
2021/12/31 06:08:05;;;;;;;1.45;0.47;;;13.40;99.90;;;;;;5117818;27;20067;-82
2021/12/31 06:10:32;;;;;;;2.80;2.60;;;13.30;99.90;;;;;;5117945;27;20047;-84
2021/12/31 06:13:00;;;;;;;0.15;0.15;;;13.40;99.90;;;;;;5139812;27;20047;-84
2021/12/31 06:15:28;;;;;;;2.17;1.98;;;13.50;99.90;;;;;;5140875;27;20035;-84
2021/12/31 06:17:54;;;;;;;0.17;0.17;;;13.30;99.90;;;;;;5136443;27;20092;-87
2021/12/31 06:20:20;;;;;;;0.47;0.43;;;13.40;99.90;;;;;;5118021;27;20039;-85
2021/12/31 06:22:46;;;;;;;0.13;0.13;;;13.30;99.90;;;;;;5136042;27;20039;-86
2021/12/31 06:25:12;;;;;;;0.73;0.73;;;13.40;99.90;;;;;;5117598;27;20096;-84
2021/12/31 06:27:37;;;;;;;3.13;1.08;;;13.20;99.90;;;;;;5117486;27;20039;-82
2021/12/31 06:30:04;;;;;;;0.20;0.20;;;13.30;99.90;;;;;;5136146;27;20179;-86
2021/12/31 06:32:30;;;;;;;0.85;0.85;;;13.10;99.90;;;;;;5135972;27;20074;-86
2021/12/31 06:34:56;;;;;;;1.48;1.30;;;13.20;99.90;;;;;;5135745;27;20452;-85
2021/12/31 06:37:21;;;;;;;0.90;0.85;;;13.30;99.90;;;;;;5135693;27;20035;-85
2021/12/31 06:39:47;;;;;;;0.10;0.10;;;13.20;99.90;;;;;;5117228;27;20049;-86
2021/12/31 06:42:13;;;;;;;1.00;1.00;;;13.30;99.90;;;;;;5135608;27;20039;-83
2021/12/31 06:44:39;;;;;;;1.00;0.95;;;13.40;99.90;;;;;;5135364;27;20062;-85
2021/12/31 06:47:06;;;;;;;0.55;0.40;;;13.20;99.90;;;;;;5117385;27;20047;-85
2021/12/31 06:49:32;;;;;;;0.50;0.50;;;13.30;99.90;;;;;;5135517;27;20043;-85
2021/12/31 06:51:58;;;;;;;0.20;0.20;;;13.40;99.90;;;;;;5135417;27;20038;-86
2021/12/31 06:54:24;;;;;;;2.13;2.03;;;13.30;99.90;;;;;;5117337;27;20417;-84
2021/12/31 06:56:49;;;;;;;0.35;0.35;;;13.30;99.90;;;;;;5117335;27;20399;-85
2021/12/31 06:59:15;;;;;;;0.25;0.25;;;13.20;99.90;;;;;;5134844;27;20503;-86
2021/12/31 07:01:41;;;;;;;0.45;0.45;;;13.30;99.90;;;;;;5116972;27;20424;-86
2021/12/31 07:04:07;;;;;;;0.15;0.15;;;13.20;99.90;;;;;;5135316;27;20031;-84
2021/12/31 07:06:32;;;;;;;0.93;0.57;;;13.30;99.90;;;;;;5117277;27;20047;-83
2021/12/31 07:08:58;;;;;;;0.50;0.50;;;13.20;99.90;;;;;;5139151;27;20110;-84
2021/12/31 07:11:24;;;;;;;0.20;0.20;;;13.30;99.90;;;;;;5136560;27;20050;-85
2021/12/31 07:13:50;;;;;;;0.35;0.35;;;13.30;99.90;;;;;;5116835;27;20058;-83
2021/12/31 07:16:16;;;;;;;0.77;0.50;;;13.30;99.90;;;;;;5116844;27;20035;-82
2021/12/31 07:18:42;;;;;;;1.35;1.10;;;13.30;99.90;;;;;;5134787;27;20187;-84
2021/12/31 07:21:08;;;;;;;1.10;1.10;;;13.10;99.90;;;;;;5134916;27;20063;-82
2021/12/31 07:23:33;;;;;;;1.10;1.10;;;13.10;99.90;;;;;;5116570;27;20380;-83
2021/12/31 07:25:59;;;;;;;6.05;1.90;;;13.10;99.90;;;;;;5134756;27;20487;-85
2021/12/31 07:28:25;;;;;;;2.47;1.95;;;13.00;99.90;;;;;;5134630;27;20131;-81
2021/12/31 07:30:50;;;;;;;13.75;2.25;;;12.90;99.90;;;;;;5116158;27;20491;-83
2021/12/31 07:33:19;;;;;;;1.40;1.10;;;13.00;99.90;;;;;;5116190;27;20039;-83
2021/12/31 07:35:46;;;;;;;9.55;2.85;;;13.00;99.90;;;;;;5134573;27;20050;-83
2021/12/31 07:38:19;;;;;;;4.80;1.05;;;12.90;99.90;;;;;;5115943;27;20053;-84
2021/12/31 07:40:46;;;;;;;0.30;0.30;;;12.90;99.90;;;;;;5116342;27;20484;-81
2021/12/31 07:43:12;;;;;;;0.63;0.63;;;12.90;99.90;;;;;;5115891;27;20049;-82
2021/12/31 07:45:38;;;;;;;0.20;0.20;;;12.90;99.90;;;;;;5116353;27;20074;-83
2021/12/31 07:48:05;;;;;;;1.27;0.63;;;12.80;99.90;;;;;;5134576;27;20035;-85
2021/12/31 07:50:32;;;;;;;2.92;0.85;;;12.80;99.90;;;;;;5116051;27;20100;-85
2021/12/31 07:52:58;;;;;;;0.63;0.63;;;12.90;99.90;;;;;;5134331;27;20035;-83
2021/12/31 07:55:23;;;;;;;0.28;0.28;;;12.90;99.90;;;;;;5115632;28;20054;-83
2021/12/31 07:57:49;;;;;;;1.95;0.77;;;12.80;99.90;;;;;;5116207;27;20039;-84
2021/12/31 08:00:15;;;;;;;0.45;0.45;;;12.90;99.90;;;;;;5134167;27;20407;-85
2021/12/31 08:02:41;;;;;;;0.20;0.20;;;12.80;99.90;;;;;;5128354;27;20043;-79
2021/12/31 08:05:07;;;;;;;0.10;0.10;;;12.70;99.90;;;;;;5148274;27;20042;-79
2021/12/31 08:07:33;;;;;;;0.10;0.10;;;12.70;99.90;;;;;;5134425;27;20081;-84
2021/12/31 08:09:58;;;;;;;1.67;1.58;;;12.80;99.90;;;;;;5115638;28;20078;-85
2021/12/31 08:12:24;;;;;;;0.73;0.30;;;12.80;99.90;;;;;;5115675;28;20043;-83
2021/12/31 08:14:50;;;;;;;1.75;1.65;;;12.70;99.90;;;;;;5115562;27;20050;-84
2021/12/31 08:17:16;;;;;;;0.60;0.60;;;12.80;99.90;;;;;;5081712;27;20032;-84
2021/12/31 08:19:42;;;;;;;1.13;1.13;;;12.90;99.90;;;;;;5115762;28;20055;-83
2021/12/31 08:22:08;;;;;;;0.30;0.30;;;12.80;99.90;;;;;;5116508;28;20039;-80
2021/12/31 08:24:34;;;;;;;0.17;0.17;;;12.90;99.90;;;;;;5115585;28;20047;-81
2021/12/31 08:27:01;;;;;;;2.72;0.98;;;12.80;99.90;;;;;;5115456;28;20193;-82
2021/12/31 08:29:26;;;;;;;0.63;0.63;;;12.90;99.90;;;;;;5115389;28;20050;-80
2021/12/31 08:31:52;;;;;;;1.58;1.23;;;12.90;99.90;;;;;;5115614;28;20043;-83
2021/12/31 08:34:18;;;;;;;0.47;0.43;;;13.00;99.90;;;;;;5115536;28;20054;-80
2021/12/31 08:36:43;;;;;;;0.95;0.82;;;12.90;99.90;;;;;;5115283;28;20088;-82
2021/12/31 08:39:10;;;;;;;0.52;0.52;;;12.80;99.90;;;;;;5115325;28;20051;-84
2021/12/31 08:41:39;;;;;;;2.03;0.50;;;12.90;99.90;;;;;;5115241;28;20130;-84
2021/12/31 08:44:06;;;;;;;1.75;1.10;;;12.90;99.90;;;;;;5115214;28;20047;-83
2021/12/31 08:46:33;;;;;;;1.55;0.63;;;13.00;99.90;;;;;;5115796;28;20039;-84
2021/12/31 08:48:59;;;;;;;0.90;0.90;;;12.90;99.90;;;;;;5115108;28;20043;-78
2021/12/31 08:51:25;;;;;;;0.90;0.75;;;12.90;99.90;;;;;;5115118;28;20138;-79
2021/12/31 08:53:53;;;;;;;0.73;0.73;;;12.90;99.90;;;;;;5115337;28;20081;-81
2021/12/31 08:56:18;;;;;;;1.35;1.25;;;12.90;99.90;;;;;;5115150;28;20085;-84
2021/12/31 08:58:44;;;;;;;1.08;0.98;;;13.00;99.90;;;;;;5114778;28;20090;-83
2021/12/31 09:01:10;;;;;;;0.10;0.10;;;12.90;99.90;;;;;;5097913;28;20104;-83
2021/12/31 09:03:35;;;;;;;0.20;0.20;;;12.90;99.90;;;;;;5114979;28;20096;-83
2021/12/31 09:06:01;;;;;;;0.50;0.22;;;12.90;99.90;;;;;;5114905;28;20043;-83
2021/12/31 09:08:27;;;;;;;0.35;0.35;;;13.00;99.90;;;;;;5136816;27;20047;-85
2021/12/31 09:10:56;;;;;;;0.40;0.40;;;13.00;99.90;;;;;;5119283;27;20055;-84
2021/12/31 09:13:21;;;;;;;0.73;0.52;;;13.10;99.90;;;;;;5119240;27;20130;-85
2021/12/31 09:15:47;;;;;;;18.88;2.30;;;13.10;99.90;;;;;;5118955;27;20667;-85
2021/12/31 09:18:13;;;;;;;2.67;0.57;;;13.10;99.90;;;;;;5118690;27;20090;-86
2021/12/31 09:20:40;;;;;;;0.15;0.15;;;13.20;99.90;;;;;;5118755;27;20039;-84
2021/12/31 09:23:05;;;;;;;0.40;0.40;;;13.20;99.90;;;;;;5137404;27;20047;-84
2021/12/31 09:25:31;;;;;;;0.25;0.25;;;13.30;99.90;;;;;;5118535;27;20498;-83
2021/12/31 09:27:57;;;;;;;0.05;0.05;;;13.10;99.90;;;;;;5119016;27;20134;-82
2021/12/31 09:30:23;;;;;;;1.00;1.00;;;13.10;99.90;;;;;;5118686;27;20088;-84
2021/12/31 09:32:48;;;;;;;1.10;1.10;;;13.20;99.90;;;;;;5118825;27;20042;-84
2021/12/31 09:35:14;;;;;;;0.98;0.88;;;13.20;99.90;;;;;;5118639;27;20391;-84
2021/12/31 09:37:40;;;;;;;1.73;1.63;;;13.20;99.90;;;;;;5118680;27;20085;-82
2021/12/31 09:40:07;;;;;;;1.60;1.13;;;13.20;99.90;;;;;;5118583;27;20444;-86
2021/12/31 09:42:33;;;;;;;0.65;0.63;;;13.20;99.90;;;;;;5118368;27;20050;-85
2021/12/31 09:44:59;;;;;;;0.28;0.25;;;13.20;99.90;;;;;;5118128;27;20058;-84
2021/12/31 09:47:25;;;;;;;12.77;1.45;;;13.20;99.90;;;;;;5118342;27;20047;-79
2021/12/31 09:49:50;;;;;;;1.15;1.05;;;13.30;99.90;;;;;;5118572;27;20050;-81
2021/12/31 09:52:17;;;;;;;0.80;0.73;;;13.20;99.90;;;;;;5125056;27;20172;-80
2021/12/31 09:54:46;;;;;;;1.45;0.55;;;13.20;99.90;;;;;;5148858;27;20043;-83
2021/12/31 09:57:16;;;;;;;3.38;1.48;;;13.30;99.90;;;;;;5121411;27;20073;-83
2021/12/31 09:59:42;;;;;;;0.82;0.82;;;13.20;99.90;;;;;;5118423;27;20051;-84
2021/12/31 10:02:09;;;;;;;0.73;0.52;;;13.30;99.90;;;;;;5136821;27;20076;-84
2021/12/31 10:04:56;;;;;;;1.50;1.40;;;13.30;99.90;;;;;;5117967;27;20054;-81
2021/12/31 10:07:24;;;;;;;0.40;0.40;;;13.20;99.90;;;;;;5118474;27;20047;-83
2021/12/31 10:10:14;;;;;;;0.75;0.30;;;13.20;99.90;;;;;;5117770;27;20051;-80
2021/12/31 10:12:50;;;;;;;3.05;1.95;;;13.20;99.90;;;;;;5136446;27;20039;-83
2021/12/31 10:15:21;;;;;;;0.35;0.35;;;13.20;99.90;;;;;;5136547;27;20039;-87
2021/12/31 10:17:47;;;;;;;2.28;1.40;;;13.10;99.90;;;;;;5136259;27;20043;-81
2021/12/31 10:20:14;;;;;;;14.15;2.85;;;13.20;99.90;;;;;;5116857;27;20126;-84
2021/12/31 10:22:39;;;;;;;3.63;0.95;;;13.10;99.90;;;;;;5117817;27;20047;-82
2021/12/31 10:25:23;;;;;;;2.45;1.42;;;13.10;99.90;;;;;;5136252;27;20399;-83
2021/12/31 10:27:51;;;;;;;1.50;0.82;;;13.10;99.90;;;;;;5117749;27;20047;-87
2021/12/31 10:30:23;;;;;;;3.13;2.05;;;13.10;99.90;;;;;;5135983;27;20510;-86
2021/12/31 10:32:49;;;;;;;0.63;0.63;;;13.10;99.90;;;;;;5135954;27;20047;-84
2021/12/31 10:35:20;;;;;;;2.28;0.65;;;13.00;99.90;;;;;;5135895;27;20054;-84
2021/12/31 10:37:57;;;;;;;1.97;1.87;;;13.10;99.90;;;;;;5136213;27;20054;-82
2021/12/31 10:40:36;;;;;;;1.15;1.15;;;13.00;99.90;;;;;;5136005;27;20131;-83
2021/12/31 10:43:23;;;;;;;1.60;1.38;;;13.00;99.90;;;;;;5117298;27;20608;-83
2021/12/31 10:46:02;;;;;;;1.92;1.83;;;13.10;99.90;;;;;;5135841;27;20047;-81
2021/12/31 10:48:48;;;;;;;2.53;2.25;;;13.00;99.90;;;;;;5146757;27;20043;-82
2021/12/31 10:51:16;;;;;;;2.35;1.35;;;13.00;99.90;;;;;;5124764;27;20054;-85
2021/12/31 10:53:50;;;;;;;1.23;1.20;;;13.00;99.90;;;;;;5100597;27;20058;-83
2021/12/31 10:56:16;;;;;;;0.68;0.38;;;12.90;99.90;;;;;;5136138;27;20050;-85
2021/12/31 10:58:44;;;;;;;1.02;0.90;;;13.00;99.90;;;;;;5116749;27;20055;-82
2021/12/31 11:01:15;;;;;;;4.38;1.00;;;12.90;99.90;;;;;;5135428;27;20223;-84
2021/12/31 11:03:42;;;;;;;1.33;1.33;;;12.90;99.90;;;;;;5136073;27;20074;-83
2021/12/31 11:06:12;;;;;;;0.93;0.93;;;13.00;99.90;;;;;;5117196;27;20039;-85
2021/12/31 11:08:45;;;;;;;1.98;0.98;;;13.00;99.90;;;;;;5135755;27;20058;-85
2021/12/31 11:11:16;;;;;;;12.32;1.13;;;13.00;99.90;;;;;;5136555;27;20047;-81
2021/12/31 11:13:44;;;;;;;0.20;0.20;;;13.00;99.90;;;;;;5136528;27;20073;-82
2021/12/31 11:16:11;;;;;;;2.63;2.05;;;13.00;99.90;;;;;;5116358;27;20552;-86
2021/12/31 11:18:39;;;;;;;1.52;1.42;;;13.00;99.90;;;;;;5134747;27;20046;-83
2021/12/31 11:21:09;;;;;;;0.57;0.57;;;13.00;99.90;;;;;;5134694;27;20114;-84
2021/12/31 11:23:36;;;;;;;2.80;0.85;;;13.00;99.90;;;;;;5134963;27;20092;-84
2021/12/31 11:26:05;;;;;;;0.93;0.93;;;12.90;99.90;;;;;;5135009;27;20083;-85
2021/12/31 11:28:39;;;;;;;3.40;1.17;;;12.80;99.90;;;;;;5134916;27;20068;-86
2021/12/31 11:31:17;;;;;;;2.28;2.17;;;12.70;99.90;;;;;;5116755;27;20179;-85
2021/12/31 11:34:06;;;;;;;1.30;1.00;;;12.60;99.90;;;;;;5116201;27;20035;-84
2021/12/31 11:36:41;;;;;;;1.02;1.02;;;12.50;99.90;;;;;;5014752;28;20119;-84
2021/12/31 11:39:31;;;;;;;0.40;0.40;;;12.50;99.90;;;;;;5015337;28;20461;-83
2021/12/31 11:42:01;;;;;;;1.02;1.00;;;12.40;99.90;;;;;;5047802;28;20546;-85
2021/12/31 11:44:28;;;;;;;3.03;1.95;;;12.40;99.90;;;;;;5029011;28;20136;-83
2021/12/31 11:47:16;;;;;;;1.58;1.42;;;12.40;99.90;;;;;;5031058;28;20044;-84
2021/12/31 11:49:45;;;;;;;6.75;2.22;;;12.30;99.90;;;;;;5031114;28;20494;-84
2021/12/31 11:52:14;;;;;;;0.55;0.55;;;12.30;99.90;;;;;;5014722;28;20528;-85
2021/12/31 11:54:41;;;;;;;2.38;2.17;;;12.30;99.90;;;;;;5031156;28;20093;-85
2021/12/31 11:57:18;;;;;;;2.35;2.08;;;12.30;99.90;;;;;;5014725;28;20056;-86
2021/12/31 11:59:54;;;;;;;1.17;1.02;;;12.20;99.90;;;;;;5030874;28;20061;-82
2021/12/31 12:02:32;;;;;;;4.50;3.40;;;12.30;99.90;;;;;;5014692;28;20084;-84
2021/12/31 12:05:05;;;;;;;2.05;1.95;;;12.30;99.90;;;;;;5030949;28;20449;-84
2021/12/31 12:07:47;;;;;;;5.40;3.50;;;12.30;99.90;;;;;;5030764;28;20614;-83
2021/12/31 12:10:25;;;;;;;1.63;0.63;;;12.30;99.90;;;;;;5014079;28;20057;-83
2021/12/31 12:12:53;;;;;;;3.13;1.60;;;12.30;99.90;;;;;;5050425;27;20054;-84
2021/12/31 12:15:19;;;;;;;3.53;2.65;;;12.30;99.90;;;;;;5133991;27;20047;-80
2021/12/31 12:17:46;;;;;;;0.65;0.65;;;12.30;99.90;;;;;;5115429;27;20042;-82
2021/12/31 12:20:18;;;;;;;0.55;0.35;;;12.30;99.90;;;;;;5133782;27;20425;-84
2021/12/31 12:22:53;;;;;;;5.28;2.28;;;12.40;99.90;;;;;;5115361;28;20051;-84
2021/12/31 12:25:32;;;;;;;1.70;1.33;;;12.30;99.90;;;;;;5134180;28;20426;-85
2021/12/31 12:28:07;;;;;;;0.68;0.52;;;12.30;99.90;;;;;;5098377;28;20047;-84
2021/12/31 12:30:35;;;;;;;1.38;0.90;;;12.20;99.90;;;;;;5098344;28;20043;-85
2021/12/31 12:35:41;;;;;;;0.75;0.25;;;12.00;99.90;;;;;;5115381;28;20070;-84
2021/12/31 12:38:12;;;;;;;1.42;1.17;;;11.90;99.90;;;;;;5115116;28;20051;-84
2021/12/31 12:40:58;;;;;;;1.13;1.13;;;11.70;99.90;;;;;;5115126;28;20043;-85
2021/12/31 12:43:27;;;;;;;0.68;0.40;;;11.60;99.90;;;;;;5118622;27;20043;-84
2021/12/31 12:45:57;;;;;;;1.00;0.88;;;11.50;99.90;;;;;;5138069;27;20503;-84
2021/12/31 12:48:34;;;;;;;0.95;0.95;;;11.50;99.90;;;;;;5119342;27;20099;-84
2021/12/31 12:51:02;;;;;;;1.35;1.35;;;11.50;99.90;;;;;;5119488;27;20099;-83
2021/12/31 12:53:30;;;;;;;0.85;0.85;;;11.40;99.90;;;;;;5119695;27;20403;-83
2021/12/31 12:56:24;;;;;;;1.77;1.42;;;11.50;99.90;;;;;;5119422;27;20100;-83
2021/12/31 12:59:00;;;;;;;0.30;0.30;;;11.40;99.90;;;;;;5118963;27;20051;-85